Airfield :







YOU CAN JOIN US ON...

 
LOGIN :

Register | Disclaimer

   EN    FR    IT 

 









Legend :    VFR   Marginal VFR   IFR   Intensive IFR   Very Intensive IFR
Visi :
Ceiling :
>= 8 km
>= 3000ft
5 to 8 km
1000 to 3000 ft
1500m to 5 km
500 to 1000 ft
800 to 1500m
200 to 500 ft
< 800m
< 200 ft
Symbols :   Thunderstorms  Fog  Heavy snow  Heavy precipitations  Wind > 20 kt







- Airport Elevation : 603 ft
- IATA code : LEB


KLEB - Lebanon Municipal

CURRENT METAR :
  • 171753Z 21005KT 10SM FEW027 SCT035 28/21 A2989 RMK AO2 SLP110 60001 T02830206 10289 20222 56005

EXPIRED METARs :
  • 171653Z 00000KT 10SM SCT021 BKN033 27/21 A2989 RMK AO2 SLP111 T02720206
  • 171553Z 19006KT 10SM SCT090 27/21 A2990 RMK AO2 SLP112 T02670211

TAF KLEB
Valid from the 17 at 18:00 until the 18 at 18:00 UTC


171728Z 1718/1818 20004KT P6SM -SHRA BKN035 BKN080
TEMPO 1718/1722 1SM TSRA BKN025 OVC040CB
FM180000 00000KT P6SM BKN080 BKN120
FM180500 00000KT 2SM BR BKN002
FM181200 VRB03KT P6SM BKN080 BKN120
KZBW FIR / North America



MET'MAP, your aeronautical weather chart ! - Copyright ORBIFLY December 2007 - Disclaimer

ORBIFLY MET'MAP TEAM :

Programming & Development : Alexandra Zaïnal
Concept & Development : Baudouin d'Aumeries
Co-Development & Prog : Marc-Olivier Méhu
Technical & hardware support : Manuel Goepfert

Contact : metmap@orbifly.com




SOURCES & CREDITS :

   NOAA